createdAt,value
2018-11-22T00:02:19.097Z,1.48
2018-11-22T00:04:50.356Z,1.48
2018-11-22T00:07:18.837Z,1.49
2018-11-22T00:09:50.032Z,1.55
2018-11-22T00:12:21.304Z,1.54
2018-11-22T00:14:49.737Z,1.52
2018-11-22T00:17:18.132Z,1.51
2018-11-22T00:19:49.435Z,1.55
2018-11-22T00:22:18.663Z,1.55
2018-11-22T00:24:50.333Z,1.55
2018-11-22T00:27:21.588Z,1.56
2018-11-22T00:29:53.065Z,1.56
2018-11-22T00:32:24.420Z,1.53
2018-11-22T00:34:56.153Z,1.63
2018-11-22T00:37:24.776Z,1.62
2018-11-22T00:39:56.335Z,1.69
2018-11-22T00:42:27.560Z,1.56
2018-11-22T00:44:56.002Z,1.49
2018-11-22T00:47:24.467Z,1.48
2018-11-22T00:49:52.933Z,1.43
2018-11-22T00:52:24.348Z,1.52
2018-11-22T00:54:55.865Z,1.49
2018-11-22T00:57:27.353Z,1.48
2018-11-22T00:59:59.009Z,1.47
2018-11-22T01:02:27.696Z,1.62
2018-11-22T01:04:56.152Z,1.59
2018-11-22T01:07:27.793Z,1.53
2018-11-22T01:09:59.000Z,1.48
2018-11-22T01:12:27.439Z,1.56
2018-11-22T01:14:58.919Z,1.49
2018-11-22T01:17:30.166Z,1.53
2018-11-22T01:20:01.866Z,1.45
2018-11-22T01:22:33.309Z,1.41
2018-11-22T01:25:01.739Z,1.40
2018-11-22T01:27:30.161Z,1.48
2018-11-22T01:29:58.600Z,1.51
2018-11-22T01:32:27.955Z,1.56
2018-11-22T01:34:56.390Z,1.62
2018-11-22T01:37:25.049Z,1.59
2018-11-22T01:39:57.117Z,1.55
2018-11-22T01:42:28.606Z,1.53
2018-11-22T01:44:59.993Z,1.48
2018-11-22T01:47:31.279Z,1.39
2018-11-22T01:50:02.785Z,1.48
2018-11-22T01:52:34.219Z,1.46
2018-11-22T01:55:06.794Z,1.43
2018-11-22T01:57:38.206Z,1.48
2018-11-22T02:00:16.891Z,1.58
2018-11-22T02:02:45.960Z,1.56
2018-11-22T02:05:21.288Z,1.53
2018-11-22T02:07:52.837Z,1.61
2018-11-22T02:10:22.160Z,1.51
2018-11-22T02:12:53.673Z,1.52
2018-11-22T02:15:23.726Z,1.55
2018-11-22T02:17:52.139Z,1.62
2018-11-22T02:20:24.452Z,1.53
2018-11-22T02:22:53.244Z,1.52
2018-11-22T02:25:23.416Z,1.51
2018-11-22T02:27:54.754Z,1.50
2018-11-22T02:30:24.585Z,1.49
2018-11-22T02:32:54.701Z,1.59
2018-11-22T02:35:23.432Z,1.60
2018-11-22T02:37:51.846Z,1.52
2018-11-22T02:40:21.223Z,1.50
2018-11-22T02:42:50.587Z,1.52
2018-11-22T02:45:20.600Z,1.43
2018-11-22T02:47:49.038Z,1.41
2018-11-22T02:50:21.543Z,1.48
2018-11-22T02:52:50.487Z,1.47
2018-11-22T02:55:18.956Z,1.48
2018-11-22T02:57:49.174Z,1.53
2018-11-22T03:00:44.965Z,1.60
2018-11-22T03:03:17.090Z,1.51
2018-11-22T03:05:48.058Z,1.53
2018-11-22T03:08:19.440Z,1.53
2018-11-22T03:10:50.990Z,1.49
2018-11-22T03:13:20.293Z,1.50
2018-11-22T03:15:51.917Z,1.56
2018-11-22T03:18:20.357Z,1.52
2018-11-22T03:20:51.675Z,1.56
2018-11-22T03:23:23.755Z,1.46
2018-11-22T03:25:54.984Z,1.42
2018-11-22T03:28:26.302Z,1.47
2018-11-22T03:30:57.839Z,1.47
2018-11-22T03:33:29.719Z,1.47
2018-11-22T03:36:00.955Z,1.39
2018-11-22T03:38:32.567Z,1.47
2018-11-22T03:41:04.016Z,1.60
2018-11-22T03:43:32.430Z,1.65
2018-11-22T03:46:03.656Z,1.58
2018-11-22T03:48:36.277Z,1.60
2018-11-22T03:51:07.806Z,1.58
2018-11-22T03:53:36.249Z,1.52
2018-11-22T03:56:04.942Z,1.57
2018-11-22T03:58:33.380Z,1.55
2018-11-22T04:01:04.855Z,1.47
2018-11-22T04:03:36.438Z,1.47
2018-11-22T04:06:08.132Z,1.51
2018-11-22T04:08:36.561Z,1.38
2018-11-22T04:11:07.913Z,1.45
2018-11-22T04:13:39.152Z,1.51
2018-11-22T04:16:10.575Z,1.50
2018-11-22T04:18:38.984Z,1.56
2018-11-22T04:21:10.485Z,1.52
2018-11-22T04:23:38.908Z,1.49
2018-11-22T04:26:07.443Z,1.43
2018-11-22T04:28:35.933Z,1.50
2018-11-22T04:31:04.394Z,1.53
2018-11-22T04:33:32.823Z,1.40
2018-11-22T04:36:02.072Z,1.53
2018-11-22T04:38:30.494Z,1.49
2018-11-22T04:40:58.942Z,1.63
2018-11-22T04:43:27.395Z,1.65
2018-11-22T04:45:58.019Z,1.66
2018-11-22T04:48:26.483Z,1.59
2018-11-22T04:50:54.938Z,1.54
2018-11-22T04:53:23.433Z,1.50
2018-11-22T04:55:54.507Z,1.53
2018-11-22T04:58:25.729Z,1.55
2018-11-22T05:00:54.133Z,1.59
2018-11-22T05:03:26.062Z,1.54
2018-11-22T05:05:57.402Z,1.62
2018-11-22T05:08:28.642Z,1.55
2018-11-22T05:11:00.048Z,1.56
2018-11-22T05:13:31.562Z,1.66
2018-11-22T05:16:03.163Z,1.55
2018-11-22T05:18:31.562Z,1.59
2018-11-22T05:20:59.947Z,1.51
2018-11-22T05:23:31.243Z,1.51
2018-11-22T05:25:59.651Z,1.50
2018-11-22T05:28:28.070Z,1.53
2018-11-22T05:31:00.135Z,1.50
2018-11-22T05:33:28.594Z,1.58
2018-11-22T05:35:56.988Z,1.54
2018-11-22T05:38:28.506Z,1.44
2018-11-22T05:41:00.123Z,1.56
2018-11-22T05:43:28.576Z,1.54
2018-11-22T05:45:59.754Z,1.53
2018-11-22T05:48:31.089Z,1.49
2018-11-22T05:50:59.528Z,1.61
2018-11-22T05:53:28.125Z,1.53
2018-11-22T05:55:56.536Z,1.58
2018-11-22T05:58:28.068Z,1.65
2018-11-22T06:00:56.469Z,1.55
2018-11-22T06:03:27.762Z,1.51
2018-11-22T06:05:56.160Z,1.52
2018-11-22T06:08:27.631Z,1.54
2018-11-22T06:10:56.291Z,1.49
2018-11-22T06:13:24.700Z,1.41
2018-11-22T06:15:53.157Z,1.40
2018-11-22T06:18:21.635Z,1.31
2018-11-22T06:20:50.120Z,1.43
2018-11-22T06:23:18.513Z,1.38
2018-11-22T06:25:49.571Z,1.35
2018-11-22T06:28:21.048Z,1.37
2018-11-22T06:30:49.562Z,1.36
2018-11-22T06:33:18.109Z,1.35
2018-11-22T06:35:49.204Z,1.36
2018-11-22T06:38:20.134Z,1.40
2018-11-22T06:40:51.417Z,1.44
2018-11-22T06:43:19.821Z,1.50
2018-11-22T06:45:48.224Z,1.44
2018-11-22T06:48:19.635Z,1.45
2018-11-22T06:50:50.855Z,1.52
2018-11-22T06:53:19.269Z,1.47
2018-11-22T06:55:51.628Z,1.48
2018-11-22T06:58:19.266Z,1.48
2018-11-22T07:00:47.904Z,1.55
2018-11-22T07:03:18.659Z,1.46
2018-11-22T07:05:50.187Z,1.52
2018-11-22T07:08:18.779Z,1.48
2018-11-22T07:10:50.023Z,1.55
2018-11-22T07:13:21.760Z,1.46
2018-11-22T07:15:53.338Z,1.38
2018-11-22T07:18:21.769Z,1.41
2018-11-22T07:20:53.203Z,1.42
2018-11-22T07:23:24.226Z,1.25
2018-11-22T07:25:52.795Z,1.31
2018-11-22T07:28:24.145Z,1.38
2018-11-22T07:30:55.828Z,1.43
2018-11-22T07:33:24.276Z,1.45
2018-11-22T07:35:52.687Z,1.34
2018-11-22T07:38:24.296Z,1.45
2018-11-22T07:40:55.763Z,1.38
2018-11-22T07:43:26.968Z,1.39
2018-11-22T07:45:55.404Z,1.41
2018-11-22T07:48:26.688Z,1.46
2018-11-22T07:50:59.033Z,1.49
2018-11-22T07:53:30.341Z,1.54
2018-11-22T07:56:02.336Z,1.53
2018-11-22T07:58:33.894Z,1.56
2018-11-22T08:01:05.870Z,1.53
2018-11-22T08:03:38.209Z,1.51
2018-11-22T08:06:09.630Z,1.53
2018-11-22T08:08:41.164Z,1.53
2018-11-22T08:11:09.979Z,1.46
2018-11-22T12:17:07.967Z,2.68
2018-11-22T12:19:36.545Z,2.56
2018-11-22T12:22:05.185Z,2.49
2018-11-22T12:24:34.514Z,2.35
2018-11-22T12:27:03.102Z,2.43
2018-11-22T12:29:31.666Z,2.45
2018-11-22T12:32:05.504Z,2.48
2018-11-22T12:34:39.402Z,2.53
2018-11-22T12:37:10.435Z,2.69
2018-11-22T12:39:39.341Z,2.54
2018-11-22T12:42:08.910Z,2.50
2018-11-22T12:44:37.453Z,2.49
2018-11-22T12:47:06.147Z,2.52
2018-11-22T12:49:34.691Z,2.61
2018-11-22T12:52:04.237Z,2.68
2018-11-22T12:54:33.719Z,2.68
2018-11-22T12:57:03.208Z,2.65
2018-11-22T12:59:31.739Z,2.65
2018-11-22T13:02:01.332Z,2.56
2018-11-22T13:04:30.789Z,2.67
2018-11-22T13:07:00.350Z,2.43
2018-11-22T13:09:29.816Z,2.44
2018-11-22T13:11:59.285Z,2.49
2018-11-22T13:14:28.652Z,2.43
2018-11-22T13:16:58.006Z,2.47
2018-11-22T13:19:26.530Z,2.46
2018-11-22T13:21:55.089Z,2.53
2018-11-22T13:24:23.610Z,2.54
2018-11-22T13:26:52.178Z,2.46
2018-11-22T13:29:20.777Z,2.26
2018-11-22T13:31:49.348Z,2.30
2018-11-22T13:34:18.666Z,2.33
2018-11-22T13:36:47.838Z,2.25
2018-11-22T13:39:17.400Z,2.12
2018-11-22T13:41:46.246Z,2.20
2018-11-22T13:44:16.684Z,2.12
2018-11-22T13:46:45.970Z,2.16
2018-11-22T13:49:14.539Z,2.05
2018-11-22T13:51:43.116Z,2.00
2018-11-22T13:54:11.734Z,2.07
2018-11-22T13:56:40.358Z,2.09
2018-11-22T13:59:09.813Z,2.16
2018-11-22T14:01:38.421Z,2.13
2018-11-22T14:04:07.083Z,2.01
2018-11-22T14:06:35.690Z,2.07
2018-11-22T14:09:06.980Z,2.11
2018-11-22T14:11:35.558Z,2.10
2018-11-22T14:14:04.163Z,1.98
2018-11-22T14:16:32.765Z,2.04
2018-11-22T14:19:01.295Z,2.09
2018-11-22T14:21:30.938Z,2.05
2018-11-22T14:24:00.533Z,1.94
2018-11-22T14:26:30.161Z,1.98
2018-11-22T14:28:59.707Z,2.02
2018-11-22T14:31:29.283Z,1.93
2018-11-22T14:33:58.805Z,1.98
2018-11-22T14:36:27.356Z,1.93
2018-11-22T14:38:55.887Z,2.01
2018-11-22T14:41:25.507Z,1.96
2018-11-22T14:43:55.261Z,1.84
2018-11-22T14:46:25.017Z,1.95
2018-11-22T14:48:54.039Z,1.95
2018-11-22T14:51:32.308Z,1.82
2018-11-22T14:54:01.854Z,1.77
2018-11-22T14:56:31.536Z,1.74
2018-11-22T14:59:00.228Z,1.70
2018-11-22T15:01:30.075Z,1.65
2018-11-22T15:03:59.627Z,1.65
2018-11-22T15:06:28.207Z,1.60
2018-11-22T15:08:57.925Z,1.57
2018-11-22T15:11:26.824Z,1.61
2018-11-22T15:13:56.789Z,1.70
2018-11-22T15:16:26.294Z,1.69
2018-11-22T15:18:55.737Z,1.61
2018-11-22T15:21:25.001Z,1.60
2018-11-22T15:23:54.485Z,1.73
2018-11-22T15:26:23.802Z,1.75
2018-11-22T15:28:53.250Z,1.65
2018-11-22T15:31:21.797Z,1.53
2018-11-22T15:33:50.354Z,1.59
2018-11-22T15:36:19.038Z,1.53
2018-11-22T15:38:48.585Z,1.59
2018-11-22T15:41:18.148Z,1.72
2018-11-22T15:43:47.066Z,1.58
2018-11-22T15:46:16.722Z,1.59
2018-11-22T15:48:46.101Z,1.59
2018-11-22T15:51:16.982Z,1.60
2018-11-22T15:53:47.493Z,1.67
2018-11-22T15:56:16.474Z,1.71
2018-11-22T15:58:46.400Z,1.71
2018-11-22T16:01:15.117Z,1.58
2018-11-22T16:03:43.770Z,1.68
2018-11-22T16:06:12.492Z,1.69
2018-11-22T16:08:40.980Z,1.60
2018-11-22T16:11:14.781Z,1.55
2018-11-22T16:13:38.287Z,1.57
2018-11-22T16:16:07.250Z,1.61
2018-11-22T16:18:36.071Z,1.48
2018-11-22T16:21:04.577Z,1.57
2018-11-22T16:23:34.078Z,1.41
2018-11-22T16:26:03.480Z,1.53
2018-11-22T16:28:32.111Z,1.52
2018-11-22T16:31:01.612Z,1.52
2018-11-22T16:33:31.319Z,1.48
2018-11-22T16:36:00.679Z,1.53
2018-11-22T16:38:29.397Z,1.50
2018-11-22T16:40:58.902Z,1.52
2018-11-22T16:43:27.649Z,1.42
2018-11-22T16:45:56.359Z,1.39
2018-11-22T16:48:26.014Z,1.40
2018-11-22T16:50:55.832Z,1.40
2018-11-22T16:53:25.467Z,1.31
2018-11-22T16:55:54.931Z,1.32
2018-11-22T16:58:23.704Z,1.41
2018-11-22T17:00:53.136Z,1.44
2018-11-22T17:03:21.672Z,1.46
2018-11-22T17:05:51.541Z,1.46
2018-11-22T17:08:21.188Z,1.46
2018-11-22T17:10:50.923Z,1.46
2018-11-22T17:13:20.566Z,1.34
2018-11-22T17:15:50.051Z,1.35
2018-11-22T17:18:19.595Z,1.34
2018-11-22T17:20:49.457Z,1.33
2018-11-22T17:23:20.130Z,1.38
2018-11-22T17:25:49.571Z,1.32
2018-11-22T17:28:19.292Z,1.36
2018-11-22T17:30:48.630Z,1.25
2018-11-22T17:33:17.824Z,1.19
2018-11-22T17:35:47.446Z,1.23
2018-11-22T17:38:16.387Z,1.16
2018-11-22T17:40:47.437Z,1.32
2018-11-22T17:43:17.850Z,1.32
2018-11-22T17:45:47.923Z,1.25
2018-11-22T17:48:18.438Z,1.19
2018-11-22T17:50:48.283Z,1.18
2018-11-22T17:53:17.687Z,1.09
2018-11-22T17:55:46.886Z,1.19
2018-11-22T17:58:16.902Z,1.23
2018-11-22T18:00:48.522Z,1.08
2018-11-22T18:03:18.494Z,1.02
2018-11-22T18:05:47.853Z,1.14
2018-11-22T18:08:17.659Z,1.09
2018-11-22T18:10:46.404Z,1.15
2018-11-22T18:13:15.102Z,1.17
2018-11-22T18:15:48.917Z,1.29
2018-11-22T18:18:18.275Z,1.28
2018-11-22T18:20:47.528Z,1.26
2018-11-22T18:23:16.304Z,1.23
2018-11-22T18:25:48.856Z,1.29
2018-11-22T18:28:16.655Z,1.32
2018-11-22T18:30:46.519Z,1.23
2018-11-22T18:33:16.471Z,1.13
2018-11-22T18:35:45.969Z,1.06
2018-11-22T18:38:15.681Z,1.22
2018-11-22T18:40:44.912Z,1.12
2018-11-22T18:43:15.901Z,1.17
2018-11-22T18:45:47.017Z,1.16
2018-11-22T18:48:16.983Z,1.12
2018-11-22T18:50:47.019Z,1.06
2018-11-22T18:53:15.129Z,1.04
2018-11-22T18:55:45.008Z,1.14
2018-11-22T18:58:14.125Z,1.21
2018-11-22T19:00:44.299Z,1.14
2018-11-22T19:03:16.158Z,1.15
2018-11-22T19:05:44.952Z,1.07
2018-11-22T19:08:13.503Z,1.02
2018-11-22T19:10:43.018Z,1.10
2018-11-22T19:13:13.266Z,1.07
2018-11-22T19:15:43.242Z,1.04
2018-11-22T19:18:13.203Z,1.09
2018-11-22T19:20:43.560Z,1.04
2018-11-22T19:23:12.631Z,1.00
2018-11-22T19:25:41.318Z,0.99
2018-11-22T19:28:10.306Z,1.03
2018-11-22T19:30:40.431Z,1.06
2018-11-22T19:33:10.733Z,1.10
2018-11-22T19:35:42.045Z,1.13
2018-11-22T19:38:10.761Z,1.25
2018-11-22T19:40:40.014Z,1.31
2018-11-22T19:43:09.558Z,1.20
2018-11-22T19:45:39.874Z,1.23
2018-11-22T19:48:08.786Z,1.16
2018-11-22T19:50:37.417Z,1.23
2018-11-22T19:53:07.865Z,1.26
2018-11-22T19:55:38.465Z,1.33
2018-11-22T19:58:09.871Z,1.24
2018-11-22T20:00:39.282Z,1.09
2018-11-22T20:03:09.021Z,1.12
2018-11-22T20:05:40.520Z,1.18
2018-11-22T20:10:33.000Z,1.18
2018-11-22T20:13:03.423Z,1.22
2018-11-22T20:15:34.349Z,1.13
2018-11-22T20:18:06.188Z,1.13
2018-11-22T20:20:36.348Z,1.11
2018-11-22T20:23:06.431Z,1.17
2018-11-22T20:25:35.352Z,1.10
2018-11-22T20:28:04.090Z,1.16
2018-11-22T20:30:37.862Z,1.18
2018-11-22T20:33:07.389Z,1.21
2018-11-22T20:35:36.233Z,1.22
2018-11-22T20:38:04.816Z,1.08
2018-11-22T20:40:33.405Z,1.16
2018-11-22T20:43:02.174Z,1.08
2018-11-22T20:45:31.561Z,1.20
2018-11-22T20:48:01.814Z,1.24
2018-11-22T20:50:30.843Z,1.20
2018-11-22T20:53:00.322Z,1.25
2018-11-22T20:55:30.361Z,1.32
2018-11-22T20:58:00.324Z,1.33
2018-11-22T21:00:30.778Z,1.34
2018-11-22T21:02:59.312Z,1.34
2018-11-22T21:05:28.617Z,1.37
2018-11-22T21:07:57.207Z,1.28
2018-11-22T21:10:27.968Z,1.17
2018-11-22T21:12:56.560Z,1.27
2018-11-22T21:15:27.269Z,1.31
2018-11-22T21:18:01.461Z,1.31
2018-11-22T21:20:34.455Z,1.36
2018-11-22T21:23:04.024Z,1.42
2018-11-22T21:25:32.588Z,1.37
2018-11-22T21:28:01.134Z,1.35
2018-11-22T21:30:32.154Z,1.25
2018-11-22T21:33:01.347Z,1.28
2018-11-22T21:35:30.350Z,1.21
2018-11-22T21:37:59.775Z,1.26
2018-11-22T21:40:30.024Z,1.28
2018-11-22T21:42:59.728Z,1.23
2018-11-22T21:45:28.883Z,1.22
2018-11-22T21:47:57.689Z,1.20
2018-11-22T21:50:27.266Z,1.25
2018-11-22T21:52:55.843Z,1.19
2018-11-22T21:55:25.654Z,1.23
2018-11-22T21:57:55.564Z,1.12
2018-11-22T22:00:28.892Z,1.19
2018-11-22T22:02:59.934Z,1.17
2018-11-22T22:05:28.549Z,1.08
2018-11-22T22:07:58.025Z,1.09
2018-11-22T22:10:27.546Z,1.13
2018-11-22T22:12:56.129Z,1.14
2018-11-22T22:15:26.267Z,1.21
2018-11-22T22:17:55.697Z,1.19
2018-11-22T22:20:25.811Z,1.21
2018-11-22T22:22:54.357Z,1.16
2018-11-22T22:25:23.934Z,1.17
2018-11-22T22:27:53.581Z,1.21
2018-11-22T22:30:25.217Z,1.17
2018-11-22T22:32:56.208Z,1.24
2018-11-22T22:35:24.755Z,1.14
2018-11-22T22:37:53.300Z,1.22
2018-11-22T22:40:24.075Z,1.31
2018-11-22T22:42:53.764Z,1.20
2018-11-22T22:45:24.467Z,1.20
2018-11-22T22:47:53.736Z,1.25
2018-11-22T22:50:23.435Z,1.23
2018-11-22T22:52:53.684Z,1.41
2018-11-22T22:55:22.349Z,1.43
2018-11-22T22:57:50.962Z,1.43
2018-11-22T23:00:25.993Z,1.52
2018-11-22T23:02:57.877Z,1.59
2018-11-22T23:05:27.876Z,1.55
2018-11-22T23:07:56.795Z,1.55
2018-11-22T23:10:26.071Z,1.50
2018-11-22T23:12:55.306Z,1.46
2018-11-22T23:15:24.415Z,1.45
2018-11-22T23:17:53.969Z,1.56
2018-11-22T23:20:24.854Z,1.47
2018-11-22T23:22:53.996Z,1.45
2018-11-22T23:25:23.346Z,1.52
2018-11-22T23:27:52.032Z,1.56
2018-11-22T23:30:23.760Z,1.28
2018-11-22T23:32:56.455Z,1.43
2018-11-22T23:35:24.303Z,1.49
2018-11-22T23:37:54.104Z,1.42
2018-11-22T23:40:23.919Z,1.36
2018-11-22T23:42:53.722Z,1.48
2018-11-22T23:45:24.698Z,1.58
2018-11-22T23:47:54.127Z,1.50
2018-11-22T23:50:24.932Z,1.68
2018-11-22T23:52:55.797Z,1.49
2018-11-22T23:55:25.312Z,1.46
2018-11-22T23:57:54.773Z,1.44
